Pagrindinis puslapis
METAR-TAF:

METAR-TAF

Oro uostai :

Bengalūras, Indija

platuma: 12-57-00N, ilguma: 077-40-06E, Aukštis: 888 m

Dabartinis oras

Ataskaita buvo paskelbta 2 valandos ir 56 minutes, ne 18:00 UTC
Vėjas 10 kt iš Vakarų
Temperatūra 23°C
Drėgmė 89%
Slėgis 1013 hPa
Matomumas: 6000 m
Išsisklaidę debesys ne aukštis 1200 ft
Išsisklaidę debesys ne aukštis 8000 ft
lietus

METAR: VOBG 171800Z 27010KT 6000 RA SCT012 SCT080 23/21 Q1013

Laikas: 02:26 (20:56 UTC)

Prognozė

Ataskaita buvo paskelbta 56 minutes, ne 20:00 UTC
Prognozė galioja nuo 17 metu 21 UTC su 18 metu 06 UTC
Vėjas 10 kt iš Vakarų
Matomumas: 6000 m
Išsisklaidę debesys ne aukštis 1200 ft
Išsisklaidę debesys ne aukštis 8000 ft
Laikinai
nuo 17 metu 21 UTC su 18 metu 03 UTC
Matomumas: 4000 m
Išsisklaidę debesys ne aukštis 800 ft
Išsisklaidę debesys ne aukštis 1200 ft
Su prošvaistėmis ne aukštis 8000 ft
dulksna, rūkana

TAF: VOBG 172000Z 1721/1806 27010KT 6000 SCT012 SCT080 TEMPO 1721/1803 4000 DZ BR SCT008 SCT012 BKN080

Orai ataskaitas ir orų prognozės (METAR, TAF).

turimą stotys yra geltonos ir raudonos taškus žemėlapyje.

Perkelti pele per norėdami pamatyti stoties vardą.

Tada spustelėkite, norėdami matyti oro stebėjimo ir prognozės.

Norėdami pakeisti žemėlapį: spustelėkite ant žalios mygtukų su juodo kryžiaus žemyn,; žalią mygtuką su brūkšneliu, jei norite nutolinti; arba žalių rodyklių gretimoms žemėlapius.


METAR-TAF: